sensor_id;sensor_type;location;lat;lon;timestamp;P1;durP1;ratioP1;P2;durP2;ratioP2
21503;SDS011;10913;51.992;9.228;2023-04-25T00:01:20;13.20;;;6.55;;
21503;SDS011;10913;51.992;9.228;2023-04-25T00:03:46;12.73;;;5.57;;
21503;SDS011;10913;51.992;9.228;2023-04-25T00:06:12;14.07;;;6.90;;
21503;SDS011;10913;51.992;9.228;2023-04-25T00:08:37;14.32;;;6.15;;
21503;SDS011;10913;51.992;9.228;2023-04-25T00:11:03;12.20;;;6.03;;
21503;SDS011;10913;51.992;9.228;2023-04-25T00:13:29;13.00;;;6.47;;
21503;SDS011;10913;51.992;9.228;2023-04-25T00:15:54;15.38;;;7.07;;
21503;SDS011;10913;51.992;9.228;2023-04-25T00:18:21;15.07;;;6.50;;
21503;SDS011;10913;51.992;9.228;2023-04-25T00:20:46;12.18;;;5.57;;
21503;SDS011;10913;51.992;9.228;2023-04-25T00:23:16;16.20;;;6.95;;
21503;SDS011;10913;51.992;9.228;2023-04-25T00:25:45;13.00;;;6.50;;
21503;SDS011;10913;51.992;9.228;2023-04-25T00:28:13;13.18;;;6.30;;
21503;SDS011;10913;51.992;9.228;2023-04-25T00:30:39;12.30;;;6.07;;
21503;SDS011;10913;51.992;9.228;2023-04-25T00:33:05;13.85;;;5.97;;
21503;SDS011;10913;51.992;9.228;2023-04-25T00:35:31;11.43;;;6.63;;
21503;SDS011;10913;51.992;9.228;2023-04-25T00:37:56;13.95;;;6.10;;
21503;SDS011;10913;51.992;9.228;2023-04-25T00:40:22;16.15;;;6.78;;
21503;SDS011;10913;51.992;9.228;2023-04-25T00:42:47;12.55;;;5.93;;
21503;SDS011;10913;51.992;9.228;2023-04-25T00:45:14;12.55;;;6.28;;
21503;SDS011;10913;51.992;9.228;2023-04-25T00:47:40;13.57;;;6.65;;
21503;SDS011;10913;51.992;9.228;2023-04-25T00:50:07;15.48;;;6.93;;
21503;SDS011;10913;51.992;9.228;2023-04-25T00:52:33;13.57;;;6.63;;
21503;SDS011;10913;51.992;9.228;2023-04-25T00:54:59;14.10;;;6.85;;
21503;SDS011;10913;51.992;9.228;2023-04-25T00:57:25;16.40;;;7.25;;
21503;SDS011;10913;51.992;9.228;2023-04-25T00:59:51;15.27;;;7.35;;
21503;SDS011;10913;51.992;9.228;2023-04-25T01:02:18;13.30;;;6.78;;
21503;SDS011;10913;51.992;9.228;2023-04-25T01:04:45;15.63;;;7.35;;
21503;SDS011;10913;51.992;9.228;2023-04-25T01:07:12;15.27;;;7.07;;
21503;SDS011;10913;51.992;9.228;2023-04-25T01:09:38;13.02;;;7.30;;
21503;SDS011;10913;51.992;9.228;2023-04-25T01:12:03;14.18;;;7.15;;
21503;SDS011;10913;51.992;9.228;2023-04-25T01:14:29;15.93;;;6.72;;
21503;SDS011;10913;51.992;9.228;2023-04-25T01:16:54;14.20;;;7.05;;
21503;SDS011;10913;51.992;9.228;2023-04-25T01:19:20;14.45;;;7.45;;
21503;SDS011;10913;51.992;9.228;2023-04-25T01:21:45;12.02;;;7.13;;
21503;SDS011;10913;51.992;9.228;2023-04-25T01:24:11;12.35;;;6.97;;
21503;SDS011;10913;51.992;9.228;2023-04-25T01:26:37;13.88;;;6.85;;
21503;SDS011;10913;51.992;9.228;2023-04-25T01:29:04;12.82;;;6.82;;
21503;SDS011;10913;51.992;9.228;2023-04-25T01:31:31;14.40;;;7.72;;
21503;SDS011;10913;51.992;9.228;2023-04-25T01:33:58;15.55;;;8.02;;
21503;SDS011;10913;51.992;9.228;2023-04-25T01:36:23;14.55;;;7.20;;
21503;SDS011;10913;51.992;9.228;2023-04-25T01:38:48;12.82;;;7.75;;
21503;SDS011;10913;51.992;9.228;2023-04-25T01:41:14;13.23;;;7.20;;
21503;SDS011;10913;51.992;9.228;2023-04-25T01:43:41;12.55;;;7.38;;
21503;SDS011;10913;51.992;9.228;2023-04-25T01:46:07;15.30;;;8.68;;
21503;SDS011;10913;51.992;9.228;2023-04-25T01:48:33;14.98;;;7.60;;
21503;SDS011;10913;51.992;9.228;2023-04-25T01:50:58;17.58;;;8.18;;
21503;SDS011;10913;51.992;9.228;2023-04-25T01:53:23;11.65;;;7.32;;
21503;SDS011;10913;51.992;9.228;2023-04-25T01:55:49;13.98;;;7.60;;
21503;SDS011;10913;51.992;9.228;2023-04-25T01:58:15;10.10;;;6.90;;
21503;SDS011;10913;51.992;9.228;2023-04-25T02:00:40;12.20;;;7.45;;
21503;SDS011;10913;51.992;9.228;2023-04-25T02:03:06;11.38;;;6.75;;
21503;SDS011;10913;51.992;9.228;2023-04-25T02:05:36;12.15;;;6.80;;
21503;SDS011;10913;51.992;9.228;2023-04-25T02:08:02;11.00;;;6.75;;
21503;SDS011;10913;51.992;9.228;2023-04-25T02:10:29;10.38;;;6.18;;
21503;SDS011;10913;51.992;9.228;2023-04-25T02:12:55;11.32;;;7.18;;
21503;SDS011;10913;51.992;9.228;2023-04-25T02:15:22;13.25;;;7.35;;
21503;SDS011;10913;51.992;9.228;2023-04-25T02:17:47;11.45;;;7.10;;
21503;SDS011;10913;51.992;9.228;2023-04-25T02:20:12;11.48;;;6.70;;
21503;SDS011;10913;51.992;9.228;2023-04-25T02:22:38;10.45;;;6.72;;
21503;SDS011;10913;51.992;9.228;2023-04-25T02:25:03;12.68;;;7.47;;
21503;SDS011;10913;51.992;9.228;2023-04-25T02:27:29;10.38;;;6.78;;
21503;SDS011;10913;51.992;9.228;2023-04-25T02:29:55;8.95;;;5.90;;
21503;SDS011;10913;51.992;9.228;2023-04-25T02:32:21;10.73;;;6.25;;
21503;SDS011;10913;51.992;9.228;2023-04-25T02:34:46;8.35;;;5.50;;
21503;SDS011;10913;51.992;9.228;2023-04-25T02:37:13;11.82;;;6.10;;
21503;SDS011;10913;51.992;9.228;2023-04-25T02:39:38;9.85;;;6.43;;
21503;SDS011;10913;51.992;9.228;2023-04-25T02:42:04;7.22;;;5.65;;
21503;SDS011;10913;51.992;9.228;2023-04-25T02:44:29;9.65;;;5.72;;
21503;SDS011;10913;51.992;9.228;2023-04-25T02:46:55;10.35;;;6.18;;
21503;SDS011;10913;51.992;9.228;2023-04-25T02:49:20;8.95;;;6.22;;
21503;SDS011;10913;51.992;9.228;2023-04-25T02:51:45;9.05;;;6.20;;
21503;SDS011;10913;51.992;9.228;2023-04-25T02:54:11;9.35;;;6.32;;
21503;SDS011;10913;51.992;9.228;2023-04-25T02:56:36;8.85;;;6.22;;
21503;SDS011;10913;51.992;9.228;2023-04-25T02:59:01;10.63;;;6.35;;
21503;SDS011;10913;51.992;9.228;2023-04-25T03:01:27;8.93;;;6.15;;
21503;SDS011;10913;51.992;9.228;2023-04-25T03:03:52;8.15;;;5.75;;
21503;SDS011;10913;51.992;9.228;2023-04-25T03:06:17;9.27;;;5.95;;
21503;SDS011;10913;51.992;9.228;2023-04-25T03:08:43;8.18;;;6.30;;
21503;SDS011;10913;51.992;9.228;2023-04-25T03:11:08;11.25;;;6.00;;
21503;SDS011;10913;51.992;9.228;2023-04-25T03:13:33;13.07;;;5.10;;
21503;SDS011;10913;51.992;9.228;2023-04-25T03:15:59;9.70;;;4.22;;
21503;SDS011;10913;51.992;9.228;2023-04-25T03:18:25;14.98;;;4.50;;
21503;SDS011;10913;51.992;9.228;2023-04-25T03:20:50;12.82;;;3.95;;
21503;SDS011;10913;51.992;9.228;2023-04-25T03:23:15;13.48;;;4.25;;
21503;SDS011;10913;51.992;9.228;2023-04-25T03:25:41;11.32;;;3.75;;
21503;SDS011;10913;51.992;9.228;2023-04-25T03:28:06;15.15;;;3.95;;
21503;SDS011;10913;51.992;9.228;2023-04-25T03:30:32;11.70;;;4.32;;
21503;SDS011;10913;51.992;9.228;2023-04-25T03:32:57;14.50;;;3.88;;
21503;SDS011;10913;51.992;9.228;2023-04-25T03:35:23;12.68;;;3.85;;
21503;SDS011;10913;51.992;9.228;2023-04-25T03:37:48;16.15;;;4.57;;
21503;SDS011;10913;51.992;9.228;2023-04-25T03:40:14;13.30;;;4.15;;
21503;SDS011;10913;51.992;9.228;2023-04-25T03:42:39;10.48;;;3.28;;
21503;SDS011;10913;51.992;9.228;2023-04-25T03:45:05;14.48;;;3.50;;
21503;SDS011;10913;51.992;9.228;2023-04-25T03:47:31;12.32;;;3.83;;
21503;SDS011;10913;51.992;9.228;2023-04-25T03:49:56;9.82;;;3.38;;
21503;SDS011;10913;51.992;9.228;2023-04-25T03:52:22;11.00;;;4.07;;
21503;SDS011;10913;51.992;9.228;2023-04-25T03:54:47;14.02;;;4.10;;
21503;SDS011;10913;51.992;9.228;2023-04-25T03:57:12;14.13;;;4.00;;
21503;SDS011;10913;51.992;9.228;2023-04-25T03:59:38;13.73;;;4.07;;
21503;SDS011;10913;51.992;9.228;2023-04-25T04:02:03;14.88;;;4.25;;
21503;SDS011;10913;51.992;9.228;2023-04-25T04:04:29;11.05;;;4.20;;
21503;SDS011;10913;51.992;9.228;2023-04-25T04:06:55;12.85;;;3.70;;
21503;SDS011;10913;51.992;9.228;2023-04-25T04:09:20;9.52;;;3.63;;
21503;SDS011;10913;51.992;9.228;2023-04-25T04:11:45;10.18;;;3.83;;
21503;SDS011;10913;51.992;9.228;2023-04-25T04:14:11;10.63;;;3.65;;
21503;SDS011;10913;51.992;9.228;2023-04-25T04:16:36;13.40;;;4.32;;
21503;SDS011;10913;51.992;9.228;2023-04-25T04:19:02;13.18;;;4.10;;
21503;SDS011;10913;51.992;9.228;2023-04-25T04:21:27;11.10;;;4.60;;
21503;SDS011;10913;51.992;9.228;2023-04-25T04:23:53;18.15;;;4.10;;
21503;SDS011;10913;51.992;9.228;2023-04-25T04:26:19;11.70;;;4.25;;
21503;SDS011;10913;51.992;9.228;2023-04-25T04:28:48;15.88;;;4.75;;
21503;SDS011;10913;51.992;9.228;2023-04-25T04:31:13;14.77;;;4.50;;
21503;SDS011;10913;51.992;9.228;2023-04-25T04:33:41;14.32;;;3.95;;
21503;SDS011;10913;51.992;9.228;2023-04-25T04:36:07;13.75;;;4.00;;
21503;SDS011;10913;51.992;9.228;2023-04-25T04:38:33;11.93;;;3.83;;
21503;SDS011;10913;51.992;9.228;2023-04-25T04:40:58;13.90;;;4.30;;
21503;SDS011;10913;51.992;9.228;2023-04-25T04:43:24;20.50;;;5.35;;
21503;SDS011;10913;51.992;9.228;2023-04-25T04:45:49;16.30;;;4.65;;
21503;SDS011;10913;51.992;9.228;2023-04-25T04:48:15;11.80;;;3.95;;
21503;SDS011;10913;51.992;9.228;2023-04-25T04:50:42;18.85;;;4.28;;
21503;SDS011;10913;51.992;9.228;2023-04-25T04:53:10;15.32;;;4.00;;
21503;SDS011;10913;51.992;9.228;2023-04-25T04:55:35;11.70;;;4.05;;
21503;SDS011;10913;51.992;9.228;2023-04-25T04:58:00;15.63;;;4.10;;
21503;SDS011;10913;51.992;9.228;2023-04-25T05:00:26;13.70;;;4.20;;
21503;SDS011;10913;51.992;9.228;2023-04-25T05:02:52;13.95;;;3.85;;
21503;SDS011;10913;51.992;9.228;2023-04-25T05:05:17;14.20;;;4.07;;
21503;SDS011;10913;51.992;9.228;2023-04-25T05:07:42;13.18;;;3.75;;
21503;SDS011;10913;51.992;9.228;2023-04-25T05:10:08;13.48;;;3.80;;
21503;SDS011;10913;51.992;9.228;2023-04-25T05:12:33;14.43;;;4.05;;
21503;SDS011;10913;51.992;9.228;2023-04-25T05:14:59;12.27;;;3.97;;
21503;SDS011;10913;51.992;9.228;2023-04-25T05:17:25;14.00;;;4.15;;
21503;SDS011;10913;51.992;9.228;2023-04-25T05:19:50;12.63;;;4.00;;
21503;SDS011;10913;51.992;9.228;2023-04-25T05:22:15;12.27;;;4.05;;
21503;SDS011;10913;51.992;9.228;2023-04-25T05:24:41;14.10;;;4.65;;
21503;SDS011;10913;51.992;9.228;2023-04-25T05:27:06;14.10;;;3.70;;
21503;SDS011;10913;51.992;9.228;2023-04-25T05:29:32;13.38;;;3.78;;
21503;SDS011;10913;51.992;9.228;2023-04-25T05:31:57;12.80;;;3.80;;
21503;SDS011;10913;51.992;9.228;2023-04-25T05:34:22;15.40;;;3.85;;
21503;SDS011;10913;51.992;9.228;2023-04-25T05:36:48;12.50;;;3.53;;
21503;SDS011;10913;51.992;9.228;2023-04-25T05:39:15;15.15;;;4.10;;
21503;SDS011;10913;51.992;9.228;2023-04-25T05:41:41;10.75;;;3.40;;
21503;SDS011;10913;51.992;9.228;2023-04-25T05:44:07;14.50;;;3.65;;
21503;SDS011;10913;51.992;9.228;2023-04-25T05:46:32;14.40;;;4.00;;
21503;SDS011;10913;51.992;9.228;2023-04-25T05:48:58;12.00;;;4.03;;
21503;SDS011;10913;51.992;9.228;2023-04-25T05:51:23;10.77;;;3.95;;
21503;SDS011;10913;51.992;9.228;2023-04-25T05:53:48;14.90;;;4.32;;
21503;SDS011;10913;51.992;9.228;2023-04-25T05:56:14;15.68;;;4.10;;
21503;SDS011;10913;51.992;9.228;2023-04-25T05:58:39;14.18;;;4.15;;
21503;SDS011;10913;51.992;9.228;2023-04-25T06:01:05;11.52;;;3.70;;
21503;SDS011;10913;51.992;9.228;2023-04-25T06:03:30;10.88;;;3.83;;
21503;SDS011;10913;51.992;9.228;2023-04-25T06:05:55;14.80;;;4.28;;
21503;SDS011;10913;51.992;9.228;2023-04-25T06:08:21;13.27;;;3.95;;
21503;SDS011;10913;51.992;9.228;2023-04-25T06:10:46;14.18;;;3.85;;
21503;SDS011;10913;51.992;9.228;2023-04-25T06:13:12;11.93;;;4.07;;
21503;SDS011;10913;51.992;9.228;2023-04-25T06:15:37;14.20;;;3.75;;
21503;SDS011;10913;51.992;9.228;2023-04-25T06:18:02;12.85;;;3.90;;
21503;SDS011;10913;51.992;9.228;2023-04-25T06:20:28;10.68;;;3.67;;
21503;SDS011;10913;51.992;9.228;2023-04-25T06:22:53;12.57;;;3.80;;
21503;SDS011;10913;51.992;9.228;2023-04-25T06:25:19;13.80;;;3.90;;
21503;SDS011;10913;51.992;9.228;2023-04-25T06:27:44;12.35;;;4.00;;
21503;SDS011;10913;51.992;9.228;2023-04-25T06:30:10;11.75;;;3.63;;
21503;SDS011;10913;51.992;9.228;2023-04-25T06:32:37;14.30;;;3.80;;
21503;SDS011;10913;51.992;9.228;2023-04-25T06:35:03;11.65;;;3.60;;
21503;SDS011;10913;51.992;9.228;2023-04-25T06:37:28;10.40;;;3.95;;
21503;SDS011;10913;51.992;9.228;2023-04-25T06:39:54;13.60;;;4.38;;
21503;SDS011;10913;51.992;9.228;2023-04-25T06:42:19;12.05;;;4.25;;
21503;SDS011;10913;51.992;9.228;2023-04-25T06:44:45;11.32;;;3.95;;
21503;SDS011;10913;51.992;9.228;2023-04-25T06:47:10;9.30;;;3.20;;
21503;SDS011;10913;51.992;9.228;2023-04-25T06:49:35;9.85;;;3.38;;
21503;SDS011;10913;51.992;9.228;2023-04-25T06:52:01;15.10;;;4.03;;
21503;SDS011;10913;51.992;9.228;2023-04-25T06:54:26;13.35;;;3.97;;
21503;SDS011;10913;51.992;9.228;2023-04-25T06:56:54;14.65;;;4.20;;
21503;SDS011;10913;51.992;9.228;2023-04-25T06:59:20;12.82;;;3.38;;
21503;SDS011;10913;51.992;9.228;2023-04-25T07:01:45;12.20;;;4.85;;
21503;SDS011;10913;51.992;9.228;2023-04-25T07:04:10;14.48;;;4.50;;
21503;SDS011;10913;51.992;9.228;2023-04-25T07:06:36;13.48;;;4.03;;
21503;SDS011;10913;51.992;9.228;2023-04-25T07:09:07;13.40;;;3.83;;
21503;SDS011;10913;51.992;9.228;2023-04-25T07:11:33;11.07;;;3.10;;
21503;SDS011;10913;51.992;9.228;2023-04-25T07:13:59;12.82;;;3.13;;
21503;SDS011;10913;51.992;9.228;2023-04-25T07:16:24;11.60;;;3.42;;
21503;SDS011;10913;51.992;9.228;2023-04-25T07:18:50;11.85;;;3.40;;
21503;SDS011;10913;51.992;9.228;2023-04-25T07:21:15;12.13;;;3.30;;
21503;SDS011;10913;51.992;9.228;2023-04-25T07:23:41;11.68;;;3.40;;
21503;SDS011;10913;51.992;9.228;2023-04-25T07:26:06;10.15;;;3.45;;
21503;SDS011;10913;51.992;9.228;2023-04-25T07:28:32;12.70;;;3.45;;
21503;SDS011;10913;51.992;9.228;2023-04-25T07:30:57;10.30;;;3.25;;
21503;SDS011;10913;51.992;9.228;2023-04-25T07:33:23;9.30;;;3.05;;
21503;SDS011;10913;51.992;9.228;2023-04-25T07:35:48;8.48;;;3.17;;
21503;SDS011;10913;51.992;9.228;2023-04-25T07:38:15;12.13;;;3.03;;
21503;SDS011;10913;51.992;9.228;2023-04-25T07:40:40;13.68;;;3.22;;
21503;SDS011;10913;51.992;9.228;2023-04-25T07:43:06;8.20;;;2.70;;
21503;SDS011;10913;51.992;9.228;2023-04-25T07:45:31;8.90;;;3.03;;
21503;SDS011;10913;51.992;9.228;2023-04-25T07:47:57;10.18;;;3.35;;
21503;SDS011;10913;51.992;9.228;2023-04-25T07:50:22;11.98;;;2.97;;
21503;SDS011;10913;51.992;9.228;2023-04-25T07:52:47;9.55;;;3.08;;
21503;SDS011;10913;51.992;9.228;2023-04-25T07:55:13;13.82;;;2.90;;
21503;SDS011;10913;51.992;9.228;2023-04-25T07:57:38;12.00;;;3.22;;
21503;SDS011;10913;51.992;9.228;2023-04-25T08:00:04;13.75;;;3.53;;
21503;SDS011;10913;51.992;9.228;2023-04-25T08:02:33;10.40;;;3.15;;
21503;SDS011;10913;51.992;9.228;2023-04-25T08:04:59;9.15;;;3.42;;
21503;SDS011;10913;51.992;9.228;2023-04-25T08:07:24;9.35;;;3.30;;
21503;SDS011;10913;51.992;9.228;2023-04-25T08:09:50;10.70;;;2.83;;
21503;SDS011;10913;51.992;9.228;2023-04-25T08:12:15;9.88;;;4.15;;
21503;SDS011;10913;51.992;9.228;2023-04-25T08:14:41;11.80;;;2.88;;
21503;SDS011;10913;51.992;9.228;2023-04-25T08:17:06;10.05;;;2.92;;
21503;SDS011;10913;51.992;9.228;2023-04-25T08:19:31;9.50;;;2.95;;
21503;SDS011;10913;51.992;9.228;2023-04-25T08:21:57;9.48;;;2.90;;
21503;SDS011;10913;51.992;9.228;2023-04-25T08:24:22;10.75;;;3.08;;
21503;SDS011;10913;51.992;9.228;2023-04-25T08:26:48;8.85;;;2.88;;
21503;SDS011;10913;51.992;9.228;2023-04-25T08:29:14;8.88;;;2.65;;
21503;SDS011;10913;51.992;9.228;2023-04-25T08:31:39;5.03;;;2.60;;
21503;SDS011;10913;51.992;9.228;2023-04-25T08:34:05;8.52;;;2.80;;
21503;SDS011;10913;51.992;9.228;2023-04-25T08:36:31;6.90;;;2.17;;
21503;SDS011;10913;51.992;9.228;2023-04-25T08:38:57;11.52;;;2.65;;
21503;SDS011;10913;51.992;9.228;2023-04-25T08:41:23;6.63;;;2.40;;
21503;SDS011;10913;51.992;9.228;2023-04-25T08:43:49;5.30;;;2.33;;
21503;SDS011;10913;51.992;9.228;2023-04-25T08:46:17;7.82;;;2.50;;
21503;SDS011;10913;51.992;9.228;2023-04-25T08:48:44;10.65;;;2.40;;
21503;SDS011;10913;51.992;9.228;2023-04-25T08:51:10;4.63;;;2.03;;
21503;SDS011;10913;51.992;9.228;2023-04-25T08:53:50;8.35;;;2.60;;
21503;SDS011;10913;51.992;9.228;2023-04-25T08:56:17;8.18;;;2.50;;
21503;SDS011;10913;51.992;9.228;2023-04-25T08:58:45;8.88;;;2.28;;
21503;SDS011;10913;51.992;9.228;2023-04-25T09:01:13;6.32;;;2.00;;
21503;SDS011;10913;51.992;9.228;2023-04-25T09:03:38;5.28;;;2.10;;
21503;SDS011;10913;51.992;9.228;2023-04-25T09:06:03;7.05;;;2.40;;
21503;SDS011;10913;51.992;9.228;2023-04-25T09:08:30;7.53;;;2.28;;
21503;SDS011;10913;51.992;9.228;2023-04-25T09:10:55;5.43;;;2.15;;
21503;SDS011;10913;51.992;9.228;2023-04-25T09:13:27;6.78;;;2.13;;
21503;SDS011;10913;51.992;9.228;2023-04-25T09:15:54;8.13;;;2.17;;
21503;SDS011;10913;51.992;9.228;2023-04-25T09:18:25;7.78;;;2.10;;
21503;SDS011;10913;51.992;9.228;2023-04-25T09:21:12;7.35;;;2.30;;
21503;SDS011;10913;51.992;9.228;2023-04-25T09:23:49;5.18;;;2.10;;
21503;SDS011;10913;51.992;9.228;2023-04-25T09:26:17;9.25;;;2.25;;
21503;SDS011;10913;51.992;9.228;2023-04-25T09:28:43;6.82;;;2.17;;
21503;SDS011;10913;51.992;9.228;2023-04-25T09:31:12;6.85;;;2.38;;
21503;SDS011;10913;51.992;9.228;2023-04-25T09:33:37;7.03;;;2.38;;
21503;SDS011;10913;51.992;9.228;2023-04-25T09:36:07;5.38;;;2.20;;
21503;SDS011;10913;51.992;9.228;2023-04-25T09:38:43;5.70;;;2.08;;
21503;SDS011;10913;51.992;9.228;2023-04-25T09:41:10;5.57;;;2.17;;
21503;SDS011;10913;51.992;9.228;2023-04-25T09:43:36;5.20;;;1.88;;
21503;SDS011;10913;51.992;9.228;2023-04-25T09:46:04;6.10;;;1.83;;
21503;SDS011;10913;51.992;9.228;2023-04-25T09:48:36;7.68;;;2.03;;
21503;SDS011;10913;51.992;9.228;2023-04-25T09:53:30;8.20;;;2.08;;
21503;SDS011;10913;51.992;9.228;2023-04-25T09:55:57;4.88;;;2.15;;
21503;SDS011;10913;51.992;9.228;2023-04-25T10:01:04;10.32;;;2.65;;
21503;SDS011;10913;51.992;9.228;2023-04-25T10:06:00;6.22;;;2.10;;
21503;SDS011;10913;51.992;9.228;2023-04-25T10:08:32;7.95;;;2.50;;
21503;SDS011;10913;51.992;9.228;2023-04-25T10:11:02;4.47;;;2.00;;
21503;SDS011;10913;51.992;9.228;2023-04-25T10:13:29;7.22;;;2.40;;
21503;SDS011;10913;51.992;9.228;2023-04-25T10:15:59;6.68;;;2.20;;
21503;SDS011;10913;51.992;9.228;2023-04-25T10:18:26;5.88;;;2.10;;
21503;SDS011;10913;51.992;9.228;2023-04-25T10:20:56;5.55;;;2.28;;
21503;SDS011;10913;51.992;9.228;2023-04-25T10:23:23;8.40;;;2.15;;
21503;SDS011;10913;51.992;9.228;2023-04-25T10:25:50;6.22;;;2.10;;
21503;SDS011;10913;51.992;9.228;2023-04-25T10:28:17;7.43;;;2.13;;
21503;SDS011;10913;51.992;9.228;2023-04-25T10:33:39;9.35;;;2.33;;
21503;SDS011;10913;51.992;9.228;2023-04-25T10:36:14;6.80;;;2.13;;
21503;SDS011;10913;51.992;9.228;2023-04-25T10:38:43;6.65;;;2.47;;
21503;SDS011;10913;51.992;9.228;2023-04-25T10:41:10;4.25;;;2.03;;
21503;SDS011;10913;51.992;9.228;2023-04-25T10:48:49;5.88;;;2.17;;
21503;SDS011;10913;51.992;9.228;2023-04-25T10:54:00;7.75;;;2.55;;
21503;SDS011;10913;51.992;9.228;2023-04-25T10:56:33;5.00;;;2.15;;
21503;SDS011;10913;51.992;9.228;2023-04-25T11:01:35;9.75;;;2.58;;
21503;SDS011;10913;51.992;9.228;2023-04-25T11:04:03;5.18;;;2.10;;
21503;SDS011;10913;51.992;9.228;2023-04-25T11:06:33;5.70;;;2.15;;
21503;SDS011;10913;51.992;9.228;2023-04-25T11:09:10;6.60;;;2.13;;
21503;SDS011;10913;51.992;9.228;2023-04-25T11:11:39;4.53;;;2.05;;
21503;SDS011;10913;51.992;9.228;2023-04-25T11:14:05;5.75;;;2.13;;
21503;SDS011;10913;51.992;9.228;2023-04-25T11:19:22;5.53;;;2.10;;
21503;SDS011;10913;51.992;9.228;2023-04-25T11:21:49;4.47;;;1.83;;
21503;SDS011;10913;51.992;9.228;2023-04-25T11:24:15;4.72;;;1.90;;
21503;SDS011;10913;51.992;9.228;2023-04-25T11:26:42;5.05;;;1.80;;
21503;SDS011;10913;51.992;9.228;2023-04-25T11:29:23;5.45;;;1.90;;
21503;SDS011;10913;51.992;9.228;2023-04-25T11:31:54;5.78;;;1.88;;
21503;SDS011;10913;51.992;9.228;2023-04-25T11:34:22;3.88;;;1.95;;
21503;SDS011;10913;51.992;9.228;2023-04-25T11:36:49;5.78;;;1.73;;
21503;SDS011;10913;51.992;9.228;2023-04-25T11:39:16;3.88;;;1.50;;
21503;SDS011;10913;51.992;9.228;2023-04-25T11:41:43;4.45;;;1.75;;
21503;SDS011;10913;51.992;9.228;2023-04-25T11:44:11;5.70;;;1.88;;
21503;SDS011;10913;51.992;9.228;2023-04-25T11:46:36;5.70;;;1.88;;
21503;SDS011;10913;51.992;9.228;2023-04-25T11:49:02;4.82;;;1.75;;
21503;SDS011;10913;51.992;9.228;2023-04-25T11:51:28;5.38;;;1.88;;
21503;SDS011;10913;51.992;9.228;2023-04-25T11:53:55;4.60;;;1.55;;
21503;SDS011;10913;51.992;9.228;2023-04-25T11:56:20;5.22;;;2.10;;
21503;SDS011;10913;51.992;9.228;2023-04-25T11:58:58;4.47;;;1.60;;
21503;SDS011;10913;51.992;9.228;2023-04-25T12:01:31;5.68;;;1.92;;
21503;SDS011;10913;51.992;9.228;2023-04-25T12:04:16;5.68;;;1.85;;
21503;SDS011;10913;51.992;9.228;2023-04-25T12:06:46;5.43;;;2.13;;
21503;SDS011;10913;51.992;9.228;2023-04-25T12:09:13;5.47;;;2.10;;
21503;SDS011;10913;51.992;9.228;2023-04-25T12:11:41;4.35;;;1.83;;
21503;SDS011;10913;51.992;9.228;2023-04-25T12:14:20;5.18;;;2.00;;
21503;SDS011;10913;51.992;9.228;2023-04-25T12:16:47;6.15;;;1.88;;
21503;SDS011;10913;51.992;9.228;2023-04-25T12:19:14;4.22;;;1.50;;
21503;SDS011;10913;51.992;9.228;2023-04-25T12:21:40;4.47;;;1.70;;
21503;SDS011;10913;51.992;9.228;2023-04-25T12:24:12;7.57;;;2.00;;
21503;SDS011;10913;51.992;9.228;2023-04-25T12:26:52;8.00;;;1.95;;
21503;SDS011;10913;51.992;9.228;2023-04-25T12:29:22;3.33;;;1.45;;
21503;SDS011;10913;51.992;9.228;2023-04-25T12:31:49;5.38;;;1.98;;
21503;SDS011;10913;51.992;9.228;2023-04-25T12:34:16;5.70;;;1.80;;
21503;SDS011;10913;51.992;9.228;2023-04-25T12:36:42;4.45;;;1.67;;
21503;SDS011;10913;51.992;9.228;2023-04-25T12:39:07;5.53;;;1.98;;
21503;SDS011;10913;51.992;9.228;2023-04-25T12:41:33;4.18;;;1.83;;
21503;SDS011;10913;51.992;9.228;2023-04-25T12:43:58;6.82;;;1.63;;
21503;SDS011;10913;51.992;9.228;2023-04-25T12:46:24;3.55;;;1.60;;
21503;SDS011;10913;51.992;9.228;2023-04-25T12:48:50;8.02;;;2.38;;
21503;SDS011;10913;51.992;9.228;2023-04-25T12:51:15;4.32;;;1.73;;
21503;SDS011;10913;51.992;9.228;2023-04-25T12:53:40;4.15;;;1.40;;
21503;SDS011;10913;51.992;9.228;2023-04-25T12:56:06;4.13;;;1.70;;
21503;SDS011;10913;51.992;9.228;2023-04-25T12:58:32;4.00;;;1.70;;
21503;SDS011;10913;51.992;9.228;2023-04-25T13:00:58;6.72;;;1.73;;
21503;SDS011;10913;51.992;9.228;2023-04-25T13:03:24;3.63;;;1.63;;
21503;SDS011;10913;51.992;9.228;2023-04-25T13:05:50;4.82;;;1.63;;
21503;SDS011;10913;51.992;9.228;2023-04-25T13:08:17;3.35;;;1.55;;
21503;SDS011;10913;51.992;9.228;2023-04-25T13:10:47;3.22;;;1.60;;
21503;SDS011;10913;51.992;9.228;2023-04-25T13:13:12;4.45;;;1.58;;
21503;SDS011;10913;51.992;9.228;2023-04-25T13:15:38;4.15;;;1.40;;
21503;SDS011;10913;51.992;9.228;2023-04-25T13:18:03;3.63;;;1.33;;
21503;SDS011;10913;51.992;9.228;2023-04-25T13:20:30;3.28;;;1.35;;
21503;SDS011;10913;51.992;9.228;2023-04-25T13:22:56;4.60;;;1.40;;
21503;SDS011;10913;51.992;9.228;2023-04-25T13:25:22;3.83;;;1.45;;
21503;SDS011;10913;51.992;9.228;2023-04-25T13:27:47;5.80;;;1.38;;
21503;SDS011;10913;51.992;9.228;2023-04-25T13:30:13;3.45;;;1.52;;
21503;SDS011;10913;51.992;9.228;2023-04-25T13:32:39;4.47;;;1.27;;
21503;SDS011;10913;51.992;9.228;2023-04-25T13:35:05;4.35;;;1.15;;
21503;SDS011;10913;51.992;9.228;2023-04-25T13:37:35;4.05;;;1.52;;
21503;SDS011;10913;51.992;9.228;2023-04-25T13:40:01;4.35;;;1.80;;
21503;SDS011;10913;51.992;9.228;2023-04-25T13:42:30;2.45;;;1.30;;
21503;SDS011;10913;51.992;9.228;2023-04-25T13:44:57;5.82;;;1.80;;
21503;SDS011;10913;51.992;9.228;2023-04-25T13:47:22;3.97;;;1.70;;
21503;SDS011;10913;51.992;9.228;2023-04-25T13:49:49;3.85;;;1.60;;
21503;SDS011;10913;51.992;9.228;2023-04-25T13:52:15;4.55;;;1.95;;
21503;SDS011;10913;51.992;9.228;2023-04-25T13:54:44;5.18;;;1.90;;
21503;SDS011;10913;51.992;9.228;2023-04-25T13:57:11;3.15;;;1.95;;
21503;SDS011;10913;51.992;9.228;2023-04-25T13:59:38;5.20;;;1.83;;
21503;SDS011;10913;51.992;9.228;2023-04-25T14:02:04;5.68;;;2.00;;
21503;SDS011;10913;51.992;9.228;2023-04-25T14:04:31;4.75;;;1.80;;
21503;SDS011;10913;51.992;9.228;2023-04-25T14:06:57;4.70;;;1.83;;
21503;SDS011;10913;51.992;9.228;2023-04-25T14:09:23;6.32;;;1.80;;
21503;SDS011;10913;51.992;9.228;2023-04-25T14:11:53;3.05;;;1.50;;
21503;SDS011;10913;51.992;9.228;2023-04-25T14:14:21;5.25;;;2.05;;
21503;SDS011;10913;51.992;9.228;2023-04-25T14:16:47;6.68;;;2.40;;
21503;SDS011;10913;51.992;9.228;2023-04-25T14:19:14;3.97;;;1.92;;
21503;SDS011;10913;51.992;9.228;2023-04-25T14:21:40;3.67;;;1.80;;
21503;SDS011;10913;51.992;9.228;2023-04-25T14:24:05;5.25;;;1.63;;
21503;SDS011;10913;51.992;9.228;2023-04-25T14:26:35;4.95;;;1.90;;
21503;SDS011;10913;51.992;9.228;2023-04-25T14:29:01;4.30;;;1.58;;
21503;SDS011;10913;51.992;9.228;2023-04-25T14:31:26;4.13;;;1.90;;
21503;SDS011;10913;51.992;9.228;2023-04-25T14:33:52;3.72;;;1.77;;
21503;SDS011;10913;51.992;9.228;2023-04-25T14:36:18;5.25;;;1.80;;
21503;SDS011;10913;51.992;9.228;2023-04-25T14:38:43;3.72;;;1.33;;
21503;SDS011;10913;51.992;9.228;2023-04-25T14:41:09;4.65;;;1.98;;
21503;SDS011;10913;51.992;9.228;2023-04-25T14:43:35;4.13;;;1.50;;
21503;SDS011;10913;51.992;9.228;2023-04-25T14:46:01;3.75;;;1.65;;
21503;SDS011;10913;51.992;9.228;2023-04-25T14:48:28;3.15;;;1.27;;
21503;SDS011;10913;51.992;9.228;2023-04-25T14:50:53;3.08;;;1.70;;
21503;SDS011;10913;51.992;9.228;2023-04-25T14:53:20;1.70;;;1.33;;
21503;SDS011;10913;51.992;9.228;2023-04-25T14:55:45;2.80;;;1.20;;
21503;SDS011;10913;51.992;9.228;2023-04-25T14:58:11;2.92;;;1.67;;
21503;SDS011;10913;51.992;9.228;2023-04-25T15:00:36;3.45;;;1.27;;